Decoded Metar for KAVP (AVOCA/WILKES B. in PA, USA) (IATA:AVP) | Meteo·Mobile Aviation Weather
aviador You're here:

KAVP Decoded Metar

AVOCA/WILKES B. in PA, USA
Report Time2019-02-16 00:54:00
UTC Time2019-02-16 01:44:45
Flight Rules vfr VFR
Wind280° at 10 kt
W.Decomp.*RWY 28: 9.8 kt HW 1.9 kt RCW
RWY 22: 3.3 kt HW 9.5 kt RCW
W.Rank280° ranks 21
Current wind is above 280° avg. (7.1)
Visibility9999 m
Phenomena:N/A
Clouds:N/A
Expected CloudBase > 3,600 ft AGL from Temp-Dew spread
CeilingNone
Temp08°C (ISA -5)
Dew Point-1°C (53% RH)
AAT2.3°C
QNH1004 hPa
Density Alt732 ft
Elevation955 ft
Report Wrong Elevation
Raw Report
KAVP 160054Z 28010KT 10SM CLR 08/M01 A2965 RMK AO2 SLP043
T00831011=

Extra information for KAVP:More info

Metar Taf Metar & Taf Last 4 Metars F.Rules Stats Wind Profile Meteogram Temp Stats Airport Information Weather charts Add Link Nearby VenuesMetar ALERT Operation Metar Decoded Social comments

AIRNAV info for KAVP